sensor_id;sensor_type;location;lat;lon;timestamp;P1;durP1;ratioP1;P2;durP2;ratioP2
77598;SDS011;66758;52.078;5.070;2023-09-07T00:00:58;6.07;;;4.23;;
77598;SDS011;66758;52.078;5.070;2023-09-07T00:03:25;5.43;;;4.20;;
77598;SDS011;66758;52.078;5.070;2023-09-07T00:05:51;9.00;;;4.80;;
77598;SDS011;66758;52.078;5.070;2023-09-07T00:08:17;6.10;;;4.40;;
77598;SDS011;66758;52.078;5.070;2023-09-07T00:10:42;5.30;;;4.10;;
77598;SDS011;66758;52.078;5.070;2023-09-07T00:13:07;7.27;;;4.27;;
77598;SDS011;66758;52.078;5.070;2023-09-07T00:15:36;6.82;;;4.68;;
77598;SDS011;66758;52.078;5.070;2023-09-07T00:18:03;6.57;;;4.13;;
77598;SDS011;66758;52.078;5.070;2023-09-07T00:20:29;8.20;;;4.50;;
77598;SDS011;66758;52.078;5.070;2023-09-07T00:22:54;6.93;;;4.83;;
77598;SDS011;66758;52.078;5.070;2023-09-07T00:25:19;5.63;;;4.50;;
77598;SDS011;66758;52.078;5.070;2023-09-07T00:27:45;6.53;;;4.50;;
77598;SDS011;66758;52.078;5.070;2023-09-07T00:30:11;6.90;;;4.20;;
77598;SDS011;66758;52.078;5.070;2023-09-07T00:32:37;5.90;;;4.60;;
77598;SDS011;66758;52.078;5.070;2023-09-07T00:35:03;7.18;;;5.05;;
77598;SDS011;66758;52.078;5.070;2023-09-07T00:37:30;6.80;;;4.68;;
77598;SDS011;66758;52.078;5.070;2023-09-07T00:39:56;7.43;;;4.65;;
77598;SDS011;66758;52.078;5.070;2023-09-07T00:42:21;6.30;;;4.77;;
77598;SDS011;66758;52.078;5.070;2023-09-07T00:44:47;7.43;;;4.47;;
77598;SDS011;66758;52.078;5.070;2023-09-07T00:47:13;5.80;;;4.65;;
77598;SDS011;66758;52.078;5.070;2023-09-07T00:49:39;8.60;;;4.75;;
77598;SDS011;66758;52.078;5.070;2023-09-07T00:52:05;6.47;;;5.07;;
77598;SDS011;66758;52.078;5.070;2023-09-07T00:54:33;6.75;;;5.13;;
77598;SDS011;66758;52.078;5.070;2023-09-07T00:56:59;7.85;;;4.05;;
77598;SDS011;66758;52.078;5.070;2023-09-07T00:59:25;8.87;;;4.80;;
77598;SDS011;66758;52.078;5.070;2023-09-07T01:01:51;5.77;;;4.23;;
77598;SDS011;66758;52.078;5.070;2023-09-07T01:04:16;8.20;;;4.93;;
77598;SDS011;66758;52.078;5.070;2023-09-07T01:06:45;6.95;;;4.70;;
77598;SDS011;66758;52.078;5.070;2023-09-07T01:09:17;8.32;;;5.10;;
77598;SDS011;66758;52.078;5.070;2023-09-07T01:11:47;6.20;;;4.73;;
77598;SDS011;66758;52.078;5.070;2023-09-07T01:14:12;6.15;;;4.82;;
77598;SDS011;66758;52.078;5.070;2023-09-07T01:16:37;8.00;;;5.40;;
77598;SDS011;66758;52.078;5.070;2023-09-07T01:19:05;5.45;;;4.38;;
77598;SDS011;66758;52.078;5.070;2023-09-07T01:21:35;6.82;;;5.03;;
77598;SDS011;66758;52.078;5.070;2023-09-07T01:24:01;11.27;;;5.20;;
77598;SDS011;66758;52.078;5.070;2023-09-07T01:26:29;7.83;;;5.37;;
77598;SDS011;66758;52.078;5.070;2023-09-07T01:28:55;7.68;;;5.05;;
77598;SDS011;66758;52.078;5.070;2023-09-07T01:31:21;8.93;;;5.10;;
77598;SDS011;66758;52.078;5.070;2023-09-07T01:33:46;8.97;;;5.33;;
77598;SDS011;66758;52.078;5.070;2023-09-07T01:36:12;7.73;;;5.50;;
77598;SDS011;66758;52.078;5.070;2023-09-07T01:38:37;7.28;;;5.22;;
77598;SDS011;66758;52.078;5.070;2023-09-07T01:41:03;7.33;;;5.27;;
77598;SDS011;66758;52.078;5.070;2023-09-07T01:43:28;7.23;;;5.10;;
77598;SDS011;66758;52.078;5.070;2023-09-07T01:45:53;6.83;;;4.77;;
77598;SDS011;66758;52.078;5.070;2023-09-07T01:48:19;7.80;;;6.20;;
77598;SDS011;66758;52.078;5.070;2023-09-07T01:50:44;7.93;;;5.78;;
77598;SDS011;66758;52.078;5.070;2023-09-07T01:53:09;8.30;;;5.53;;
77598;SDS011;66758;52.078;5.070;2023-09-07T01:55:35;7.73;;;5.80;;
77598;SDS011;66758;52.078;5.070;2023-09-07T01:58:00;9.07;;;5.97;;
77598;SDS011;66758;52.078;5.070;2023-09-07T02:00:26;11.77;;;6.50;;
77598;SDS011;66758;52.078;5.070;2023-09-07T02:02:51;9.07;;;6.43;;
77598;SDS011;66758;52.078;5.070;2023-09-07T02:05:16;9.50;;;6.87;;
77598;SDS011;66758;52.078;5.070;2023-09-07T02:07:42;9.53;;;5.63;;
77598;SDS011;66758;52.078;5.070;2023-09-07T02:10:08;9.65;;;6.85;;
77598;SDS011;66758;52.078;5.070;2023-09-07T02:12:34;12.32;;;7.07;;
77598;SDS011;66758;52.078;5.070;2023-09-07T02:15:00;7.60;;;6.17;;
77598;SDS011;66758;52.078;5.070;2023-09-07T02:17:28;8.25;;;6.15;;
77598;SDS011;66758;52.078;5.070;2023-09-07T02:19:54;8.73;;;6.10;;
77598;SDS011;66758;52.078;5.070;2023-09-07T02:22:19;9.07;;;6.50;;
77598;SDS011;66758;52.078;5.070;2023-09-07T02:24:45;8.53;;;6.37;;
77598;SDS011;66758;52.078;5.070;2023-09-07T02:27:10;9.27;;;5.83;;
77598;SDS011;66758;52.078;5.070;2023-09-07T02:29:35;9.48;;;6.45;;
77598;SDS011;66758;52.078;5.070;2023-09-07T02:32:02;7.90;;;5.90;;
77598;SDS011;66758;52.078;5.070;2023-09-07T02:34:27;9.57;;;6.67;;
77598;SDS011;66758;52.078;5.070;2023-09-07T02:36:52;8.70;;;6.03;;
77598;SDS011;66758;52.078;5.070;2023-09-07T02:39:18;8.63;;;5.97;;
77598;SDS011;66758;52.078;5.070;2023-09-07T02:41:43;9.40;;;6.07;;
77598;SDS011;66758;52.078;5.070;2023-09-07T02:44:10;8.33;;;6.40;;
77598;SDS011;66758;52.078;5.070;2023-09-07T02:46:35;11.63;;;6.85;;
77598;SDS011;66758;52.078;5.070;2023-09-07T02:49:02;8.33;;;5.83;;
77598;SDS011;66758;52.078;5.070;2023-09-07T02:51:28;10.02;;;6.55;;
77598;SDS011;66758;52.078;5.070;2023-09-07T02:53:53;9.10;;;6.07;;
77598;SDS011;66758;52.078;5.070;2023-09-07T02:56:18;8.07;;;6.20;;
77598;SDS011;66758;52.078;5.070;2023-09-07T02:58:44;10.27;;;6.00;;
77598;SDS011;66758;52.078;5.070;2023-09-07T03:01:10;6.90;;;5.38;;
77598;SDS011;66758;52.078;5.070;2023-09-07T03:03:36;9.82;;;6.38;;
77598;SDS011;66758;52.078;5.070;2023-09-07T03:06:09;8.38;;;6.28;;
77598;SDS011;66758;52.078;5.070;2023-09-07T03:08:35;9.17;;;5.67;;
77598;SDS011;66758;52.078;5.070;2023-09-07T03:11:07;8.75;;;6.05;;
77598;SDS011;66758;52.078;5.070;2023-09-07T03:13:33;10.60;;;6.47;;
77598;SDS011;66758;52.078;5.070;2023-09-07T03:16:00;9.27;;;5.95;;
77598;SDS011;66758;52.078;5.070;2023-09-07T03:18:27;9.15;;;5.80;;
77598;SDS011;66758;52.078;5.070;2023-09-07T03:20:53;9.23;;;6.40;;
77598;SDS011;66758;52.078;5.070;2023-09-07T03:23:20;11.05;;;6.00;;
77598;SDS011;66758;52.078;5.070;2023-09-07T03:25:46;9.03;;;5.83;;
77598;SDS011;66758;52.078;5.070;2023-09-07T03:28:11;9.50;;;6.15;;
77598;SDS011;66758;52.078;5.070;2023-09-07T03:30:37;8.70;;;6.30;;
77598;SDS011;66758;52.078;5.070;2023-09-07T03:33:03;9.05;;;6.25;;
77598;SDS011;66758;52.078;5.070;2023-09-07T03:35:29;11.23;;;5.83;;
77598;SDS011;66758;52.078;5.070;2023-09-07T03:37:55;9.47;;;6.23;;
77598;SDS011;66758;52.078;5.070;2023-09-07T03:40:20;8.43;;;6.87;;
77598;SDS011;66758;52.078;5.070;2023-09-07T03:42:45;8.93;;;6.03;;
77598;SDS011;66758;52.078;5.070;2023-09-07T03:45:11;11.40;;;6.10;;
77598;SDS011;66758;52.078;5.070;2023-09-07T03:47:37;9.07;;;5.93;;
77598;SDS011;66758;52.078;5.070;2023-09-07T03:50:03;10.50;;;7.05;;
77598;SDS011;66758;52.078;5.070;2023-09-07T03:52:28;13.27;;;7.07;;
77598;SDS011;66758;52.078;5.070;2023-09-07T03:54:54;10.93;;;6.85;;
77598;SDS011;66758;52.078;5.070;2023-09-07T03:57:20;10.90;;;6.73;;
77598;SDS011;66758;52.078;5.070;2023-09-07T03:59:47;7.70;;;6.00;;
77598;SDS011;66758;52.078;5.070;2023-09-07T04:02:13;8.67;;;5.80;;
77598;SDS011;66758;52.078;5.070;2023-09-07T04:04:38;9.95;;;6.13;;
77598;SDS011;66758;52.078;5.070;2023-09-07T04:07:04;9.50;;;6.00;;
77598;SDS011;66758;52.078;5.070;2023-09-07T04:09:29;9.47;;;6.23;;
77598;SDS011;66758;52.078;5.070;2023-09-07T04:11:55;9.87;;;5.80;;
77598;SDS011;66758;52.078;5.070;2023-09-07T04:14:20;8.40;;;5.80;;
77598;SDS011;66758;52.078;5.070;2023-09-07T04:16:45;8.00;;;5.80;;
77598;SDS011;66758;52.078;5.070;2023-09-07T04:19:12;10.07;;;6.70;;
77598;SDS011;66758;52.078;5.070;2023-09-07T04:21:37;8.70;;;6.35;;
77598;SDS011;66758;52.078;5.070;2023-09-07T04:24:03;12.00;;;6.03;;
77598;SDS011;66758;52.078;5.070;2023-09-07T04:26:29;11.20;;;6.13;;
77598;SDS011;66758;52.078;5.070;2023-09-07T04:28:55;9.60;;;5.77;;
77598;SDS011;66758;52.078;5.070;2023-09-07T04:31:20;10.03;;;6.10;;
77598;SDS011;66758;52.078;5.070;2023-09-07T04:33:46;9.43;;;6.18;;
77598;SDS011;66758;52.078;5.070;2023-09-07T04:36:12;8.83;;;6.00;;
77598;SDS011;66758;52.078;5.070;2023-09-07T04:38:39;13.93;;;6.32;;
77598;SDS011;66758;52.078;5.070;2023-09-07T04:41:06;8.82;;;6.03;;
77598;SDS011;66758;52.078;5.070;2023-09-07T04:43:32;12.00;;;6.33;;
77598;SDS011;66758;52.078;5.070;2023-09-07T04:45:58;10.40;;;6.20;;
77598;SDS011;66758;52.078;5.070;2023-09-07T04:48:23;9.60;;;5.30;;
77598;SDS011;66758;52.078;5.070;2023-09-07T04:50:49;8.57;;;6.03;;
77598;SDS011;66758;52.078;5.070;2023-09-07T04:53:27;9.88;;;6.43;;
77598;SDS011;66758;52.078;5.070;2023-09-07T04:55:53;9.70;;;6.47;;
77598;SDS011;66758;52.078;5.070;2023-09-07T04:58:19;13.97;;;7.03;;
77598;SDS011;66758;52.078;5.070;2023-09-07T05:00:45;10.25;;;6.28;;
77598;SDS011;66758;52.078;5.070;2023-09-07T05:03:11;9.90;;;5.97;;
77598;SDS011;66758;52.078;5.070;2023-09-07T05:05:37;10.40;;;6.95;;
77598;SDS011;66758;52.078;5.070;2023-09-07T05:08:03;8.07;;;6.20;;
77598;SDS011;66758;52.078;5.070;2023-09-07T05:10:32;9.80;;;6.32;;
77598;SDS011;66758;52.078;5.070;2023-09-07T05:12:58;9.93;;;6.13;;
77598;SDS011;66758;52.078;5.070;2023-09-07T05:15:24;10.88;;;6.68;;
77598;SDS011;66758;52.078;5.070;2023-09-07T05:17:49;9.03;;;6.80;;
77598;SDS011;66758;52.078;5.070;2023-09-07T05:20:14;9.65;;;6.75;;
77598;SDS011;66758;52.078;5.070;2023-09-07T05:22:40;9.17;;;6.27;;
77598;SDS011;66758;52.078;5.070;2023-09-07T05:25:06;12.57;;;6.63;;
77598;SDS011;66758;52.078;5.070;2023-09-07T05:27:33;10.88;;;6.03;;
77598;SDS011;66758;52.078;5.070;2023-09-07T05:30:00;10.40;;;6.40;;
77598;SDS011;66758;52.078;5.070;2023-09-07T05:32:25;7.83;;;6.17;;
77598;SDS011;66758;52.078;5.070;2023-09-07T05:34:51;14.10;;;7.03;;
77598;SDS011;66758;52.078;5.070;2023-09-07T05:37:16;9.80;;;6.17;;
77598;SDS011;66758;52.078;5.070;2023-09-07T05:39:41;9.97;;;6.07;;
77598;SDS011;66758;52.078;5.070;2023-09-07T05:42:07;10.13;;;6.30;;
77598;SDS011;66758;52.078;5.070;2023-09-07T05:44:32;8.43;;;6.67;;
77598;SDS011;66758;52.078;5.070;2023-09-07T05:46:58;11.00;;;6.23;;
77598;SDS011;66758;52.078;5.070;2023-09-07T05:49:23;12.03;;;6.37;;
77598;SDS011;66758;52.078;5.070;2023-09-07T05:51:49;9.70;;;6.47;;
77598;SDS011;66758;52.078;5.070;2023-09-07T05:54:14;9.07;;;6.10;;
77598;SDS011;66758;52.078;5.070;2023-09-07T05:56:40;11.52;;;6.18;;
77598;SDS011;66758;52.078;5.070;2023-09-07T05:59:05;9.37;;;6.17;;
77598;SDS011;66758;52.078;5.070;2023-09-07T06:01:31;9.97;;;6.43;;
77598;SDS011;66758;52.078;5.070;2023-09-07T06:03:57;12.07;;;6.40;;
77598;SDS011;66758;52.078;5.070;2023-09-07T06:06:23;17.92;;;6.20;;
77598;SDS011;66758;52.078;5.070;2023-09-07T06:08:49;9.70;;;6.37;;
77598;SDS011;66758;52.078;5.070;2023-09-07T06:11:14;10.00;;;5.93;;
77598;SDS011;66758;52.078;5.070;2023-09-07T06:13:39;9.97;;;6.43;;
77598;SDS011;66758;52.078;5.070;2023-09-07T06:16:06;12.60;;;6.57;;
77598;SDS011;66758;52.078;5.070;2023-09-07T06:18:32;9.07;;;6.07;;
77598;SDS011;66758;52.078;5.070;2023-09-07T06:20:57;15.63;;;7.57;;
77598;SDS011;66758;52.078;5.070;2023-09-07T06:23:22;12.73;;;6.13;;
77598;SDS011;66758;52.078;5.070;2023-09-07T06:25:48;14.37;;;5.93;;
77598;SDS011;66758;52.078;5.070;2023-09-07T06:28:14;11.55;;;6.68;;
77598;SDS011;66758;52.078;5.070;2023-09-07T06:30:40;10.83;;;6.50;;
77598;SDS011;66758;52.078;5.070;2023-09-07T06:33:05;12.53;;;5.87;;
77598;SDS011;66758;52.078;5.070;2023-09-07T06:35:30;9.70;;;6.10;;
77598;SDS011;66758;52.078;5.070;2023-09-07T06:37:56;10.75;;;5.70;;
77598;SDS011;66758;52.078;5.070;2023-09-07T06:40:21;9.27;;;5.87;;
77598;SDS011;66758;52.078;5.070;2023-09-07T06:42:47;11.50;;;6.00;;
77598;SDS011;66758;52.078;5.070;2023-09-07T06:45:12;8.63;;;5.87;;
77598;SDS011;66758;52.078;5.070;2023-09-07T06:47:38;9.90;;;5.67;;
77598;SDS011;66758;52.078;5.070;2023-09-07T06:50:04;11.02;;;6.07;;
77598;SDS011;66758;52.078;5.070;2023-09-07T06:52:30;8.50;;;5.80;;
77598;SDS011;66758;52.078;5.070;2023-09-07T06:54:56;10.52;;;5.82;;
77598;SDS011;66758;52.078;5.070;2023-09-07T06:57:21;8.40;;;6.07;;
77598;SDS011;66758;52.078;5.070;2023-09-07T06:59:47;9.87;;;5.40;;
77598;SDS011;66758;52.078;5.070;2023-09-07T07:02:13;8.65;;;5.90;;
77598;SDS011;66758;52.078;5.070;2023-09-07T07:04:39;7.90;;;5.50;;
77598;SDS011;66758;52.078;5.070;2023-09-07T07:07:04;11.50;;;5.40;;
77598;SDS011;66758;52.078;5.070;2023-09-07T07:09:31;15.20;;;5.63;;
77598;SDS011;66758;52.078;5.070;2023-09-07T07:11:59;10.93;;;5.40;;
77598;SDS011;66758;52.078;5.070;2023-09-07T07:14:27;7.63;;;5.13;;
77598;SDS011;66758;52.078;5.070;2023-09-07T07:16:53;7.32;;;4.97;;
77598;SDS011;66758;52.078;5.070;2023-09-07T07:19:18;12.07;;;5.40;;
77598;SDS011;66758;52.078;5.070;2023-09-07T07:21:44;10.20;;;4.77;;
77598;SDS011;66758;52.078;5.070;2023-09-07T07:24:09;8.00;;;5.05;;
77598;SDS011;66758;52.078;5.070;2023-09-07T07:26:35;13.60;;;5.30;;
77598;SDS011;66758;52.078;5.070;2023-09-07T07:29:01;9.90;;;5.22;;
77598;SDS011;66758;52.078;5.070;2023-09-07T07:31:28;8.80;;;5.20;;
77598;SDS011;66758;52.078;5.070;2023-09-07T07:33:54;8.38;;;4.90;;
77598;SDS011;66758;52.078;5.070;2023-09-07T07:36:20;7.22;;;5.05;;
77598;SDS011;66758;52.078;5.070;2023-09-07T07:38:46;8.48;;;4.97;;
77598;SDS011;66758;52.078;5.070;2023-09-07T07:41:11;9.33;;;5.80;;
77598;SDS011;66758;52.078;5.070;2023-09-07T07:43:37;7.07;;;4.80;;
77598;SDS011;66758;52.078;5.070;2023-09-07T07:46:02;7.20;;;4.93;;
77598;SDS011;66758;52.078;5.070;2023-09-07T07:48:27;10.32;;;5.32;;
77598;SDS011;66758;52.078;5.070;2023-09-07T07:50:54;7.93;;;4.90;;
77598;SDS011;66758;52.078;5.070;2023-09-07T07:53:20;7.53;;;4.82;;
77598;SDS011;66758;52.078;5.070;2023-09-07T07:55:45;6.57;;;5.00;;
77598;SDS011;66758;52.078;5.070;2023-09-07T07:58:11;6.60;;;5.07;;
77598;SDS011;66758;52.078;5.070;2023-09-07T08:00:37;8.27;;;4.73;;
77598;SDS011;66758;52.078;5.070;2023-09-07T08:03:03;12.48;;;5.22;;
77598;SDS011;66758;52.078;5.070;2023-09-07T08:05:34;10.97;;;4.50;;
77598;SDS011;66758;52.078;5.070;2023-09-07T08:08:00;14.98;;;4.57;;
77598;SDS011;66758;52.078;5.070;2023-09-07T08:10:25;6.70;;;4.47;;
77598;SDS011;66758;52.078;5.070;2023-09-07T08:12:54;6.90;;;4.50;;
77598;SDS011;66758;52.078;5.070;2023-09-07T08:15:21;6.55;;;4.28;;
77598;SDS011;66758;52.078;5.070;2023-09-07T08:17:48;11.52;;;5.15;;
77598;SDS011;66758;52.078;5.070;2023-09-07T08:20:13;8.60;;;4.50;;
77598;SDS011;66758;52.078;5.070;2023-09-07T08:22:40;8.52;;;4.45;;
77598;SDS011;66758;52.078;5.070;2023-09-07T08:25:07;8.30;;;4.47;;
77598;SDS011;66758;52.078;5.070;2023-09-07T08:27:33;9.50;;;5.07;;
77598;SDS011;66758;52.078;5.070;2023-09-07T08:29:59;10.70;;;4.87;;
77598;SDS011;66758;52.078;5.070;2023-09-07T08:32:24;6.70;;;4.13;;
77598;SDS011;66758;52.078;5.070;2023-09-07T08:34:50;6.47;;;4.63;;
77598;SDS011;66758;52.078;5.070;2023-09-07T08:37:15;9.33;;;4.20;;
77598;SDS011;66758;52.078;5.070;2023-09-07T08:39:41;6.50;;;4.85;;
77598;SDS011;66758;52.078;5.070;2023-09-07T08:42:06;10.13;;;4.73;;
77598;SDS011;66758;52.078;5.070;2023-09-07T08:44:32;12.97;;;4.30;;
77598;SDS011;66758;52.078;5.070;2023-09-07T08:46:59;5.63;;;3.80;;
77598;SDS011;66758;52.078;5.070;2023-09-07T08:49:27;10.38;;;4.07;;
77598;SDS011;66758;52.078;5.070;2023-09-07T08:51:52;6.90;;;4.17;;
77598;SDS011;66758;52.078;5.070;2023-09-07T08:54:19;6.68;;;3.88;;
77598;SDS011;66758;52.078;5.070;2023-09-07T08:56:45;8.98;;;4.57;;
77598;SDS011;66758;52.078;5.070;2023-09-07T08:59:11;11.35;;;5.00;;
77598;SDS011;66758;52.078;5.070;2023-09-07T09:01:37;9.10;;;4.43;;
77598;SDS011;66758;52.078;5.070;2023-09-07T09:04:03;9.23;;;4.75;;
77598;SDS011;66758;52.078;5.070;2023-09-07T09:06:28;7.70;;;4.00;;
77598;SDS011;66758;52.078;5.070;2023-09-07T09:08:57;5.20;;;3.97;;
77598;SDS011;66758;52.078;5.070;2023-09-07T09:11:23;5.43;;;3.53;;
77598;SDS011;66758;52.078;5.070;2023-09-07T09:13:51;14.95;;;4.03;;
77598;SDS011;66758;52.078;5.070;2023-09-07T09:16:18;7.55;;;4.75;;
77598;SDS011;66758;52.078;5.070;2023-09-07T09:18:50;5.60;;;4.55;;
77598;SDS011;66758;52.078;5.070;2023-09-07T09:21:21;6.60;;;4.30;;
77598;SDS011;66758;52.078;5.070;2023-09-07T09:23:47;8.00;;;4.10;;
77598;SDS011;66758;52.078;5.070;2023-09-07T09:26:15;5.82;;;4.00;;
77598;SDS011;66758;52.078;5.070;2023-09-07T09:28:41;7.82;;;4.68;;
77598;SDS011;66758;52.078;5.070;2023-09-07T09:31:09;6.00;;;4.05;;
77598;SDS011;66758;52.078;5.070;2023-09-07T09:33:38;6.13;;;5.20;;
77598;SDS011;66758;52.078;5.070;2023-09-07T09:36:06;7.28;;;4.40;;
77598;SDS011;66758;52.078;5.070;2023-09-07T09:38:33;6.35;;;4.22;;
77598;SDS011;66758;52.078;5.070;2023-09-07T09:40:59;9.27;;;4.57;;
77598;SDS011;66758;52.078;5.070;2023-09-07T09:43:25;7.77;;;4.23;;
77598;SDS011;66758;52.078;5.070;2023-09-07T09:45:52;9.32;;;4.90;;
77598;SDS011;66758;52.078;5.070;2023-09-07T09:48:19;7.45;;;4.43;;
77598;SDS011;66758;52.078;5.070;2023-09-07T09:50:50;7.80;;;4.32;;
77598;SDS011;66758;52.078;5.070;2023-09-07T09:53:16;8.55;;;4.60;;
77598;SDS011;66758;52.078;5.070;2023-09-07T09:55:44;11.47;;;4.67;;
77598;SDS011;66758;52.078;5.070;2023-09-07T09:58:15;7.45;;;4.40;;
77598;SDS011;66758;52.078;5.070;2023-09-07T10:00:45;7.18;;;4.30;;
77598;SDS011;66758;52.078;5.070;2023-09-07T10:05:49;6.90;;;4.00;;
77598;SDS011;66758;52.078;5.070;2023-09-07T10:08:16;8.03;;;4.63;;
77598;SDS011;66758;52.078;5.070;2023-09-07T10:10:43;8.05;;;4.28;;
77598;SDS011;66758;52.078;5.070;2023-09-07T10:13:28;6.63;;;4.43;;
77598;SDS011;66758;52.078;5.070;2023-09-07T10:16:05;7.95;;;4.25;;
77598;SDS011;66758;52.078;5.070;2023-09-07T10:18:38;5.07;;;4.00;;
77598;SDS011;66758;52.078;5.070;2023-09-07T10:21:04;6.40;;;3.70;;
77598;SDS011;66758;52.078;5.070;2023-09-07T10:23:48;8.90;;;6.50;;
77598;SDS011;66758;52.078;5.070;2023-09-07T10:26:18;8.57;;;5.50;;
77598;SDS011;66758;52.078;5.070;2023-09-07T10:28:57;5.68;;;4.40;;
77598;SDS011;66758;52.078;5.070;2023-09-07T10:31:24;7.07;;;4.57;;
77598;SDS011;66758;52.078;5.070;2023-09-07T10:33:50;5.40;;;4.30;;
77598;SDS011;66758;52.078;5.070;2023-09-07T10:36:20;5.57;;;4.85;;
77598;SDS011;66758;52.078;5.070;2023-09-07T10:38:50;5.30;;;4.30;;
77598;SDS011;66758;52.078;5.070;2023-09-07T10:41:19;6.80;;;4.30;;
77598;SDS011;66758;52.078;5.070;2023-09-07T10:43:51;6.20;;;4.45;;
77598;SDS011;66758;52.078;5.070;2023-09-07T10:46:19;6.30;;;4.20;;
77598;SDS011;66758;52.078;5.070;2023-09-07T10:48:49;6.65;;;4.40;;
77598;SDS011;66758;52.078;5.070;2023-09-07T10:51:16;6.55;;;4.85;;
77598;SDS011;66758;52.078;5.070;2023-09-07T10:53:42;8.13;;;4.60;;
77598;SDS011;66758;52.078;5.070;2023-09-07T10:56:08;5.87;;;4.53;;
77598;SDS011;66758;52.078;5.070;2023-09-07T10:58:36;6.40;;;4.70;;
77598;SDS011;66758;52.078;5.070;2023-09-07T11:01:07;5.45;;;4.80;;
77598;SDS011;66758;52.078;5.070;2023-09-07T11:03:34;5.73;;;4.67;;
77598;SDS011;66758;52.078;5.070;2023-09-07T11:06:06;6.05;;;4.75;;
77598;SDS011;66758;52.078;5.070;2023-09-07T11:08:37;6.22;;;5.15;;
77598;SDS011;66758;52.078;5.070;2023-09-07T11:11:03;5.80;;;4.90;;
77598;SDS011;66758;52.078;5.070;2023-09-07T11:13:28;6.97;;;4.20;;
77598;SDS011;66758;52.078;5.070;2023-09-07T11:15:55;7.60;;;4.43;;
77598;SDS011;66758;52.078;5.070;2023-09-07T11:18:22;7.03;;;4.40;;
77598;SDS011;66758;52.078;5.070;2023-09-07T11:20:49;6.80;;;4.30;;
77598;SDS011;66758;52.078;5.070;2023-09-07T11:23:20;6.60;;;4.60;;
77598;SDS011;66758;52.078;5.070;2023-09-07T11:25:49;13.15;;;4.78;;
77598;SDS011;66758;52.078;5.070;2023-09-07T11:28:16;7.78;;;4.68;;
77598;SDS011;66758;52.078;5.070;2023-09-07T11:30:53;10.95;;;4.68;;
77598;SDS011;66758;52.078;5.070;2023-09-07T11:33:20;5.90;;;4.67;;
77598;SDS011;66758;52.078;5.070;2023-09-07T11:35:46;6.75;;;4.47;;
77598;SDS011;66758;52.078;5.070;2023-09-07T11:38:14;6.85;;;4.82;;
77598;SDS011;66758;52.078;5.070;2023-09-07T11:40:40;6.57;;;4.57;;
77598;SDS011;66758;52.078;5.070;2023-09-07T11:43:12;6.35;;;4.78;;
77598;SDS011;66758;52.078;5.070;2023-09-07T11:45:39;8.45;;;5.25;;
77598;SDS011;66758;52.078;5.070;2023-09-07T11:48:05;5.72;;;4.80;;
77598;SDS011;66758;52.078;5.070;2023-09-07T11:50:31;5.80;;;4.50;;
77598;SDS011;66758;52.078;5.070;2023-09-07T11:52:57;6.53;;;4.60;;
77598;SDS011;66758;52.078;5.070;2023-09-07T11:55:22;5.10;;;4.33;;
77598;SDS011;66758;52.078;5.070;2023-09-07T11:57:48;5.20;;;4.70;;
77598;SDS011;66758;52.078;5.070;2023-09-07T12:00:13;6.97;;;5.18;;
77598;SDS011;66758;52.078;5.070;2023-09-07T12:02:39;6.10;;;4.90;;
77598;SDS011;66758;52.078;5.070;2023-09-07T12:05:06;7.68;;;5.10;;
77598;SDS011;66758;52.078;5.070;2023-09-07T12:07:35;7.28;;;5.03;;
77598;SDS011;66758;52.078;5.070;2023-09-07T12:10:01;8.13;;;4.85;;
77598;SDS011;66758;52.078;5.070;2023-09-07T12:12:27;8.93;;;4.72;;
77598;SDS011;66758;52.078;5.070;2023-09-07T12:14:57;5.57;;;4.30;;
77598;SDS011;66758;52.078;5.070;2023-09-07T12:17:23;5.50;;;4.95;;
77598;SDS011;66758;52.078;5.070;2023-09-07T12:19:49;12.47;;;6.10;;
77598;SDS011;66758;52.078;5.070;2023-09-07T12:22:15;5.00;;;4.50;;
77598;SDS011;66758;52.078;5.070;2023-09-07T12:24:41;5.77;;;5.07;;
77598;SDS011;66758;52.078;5.070;2023-09-07T12:27:06;6.60;;;5.27;;
77598;SDS011;66758;52.078;5.070;2023-09-07T12:29:31;8.23;;;4.95;;
77598;SDS011;66758;52.078;5.070;2023-09-07T12:31:57;6.73;;;5.00;;
77598;SDS011;66758;52.078;5.070;2023-09-07T12:34:23;5.77;;;5.00;;
77598;SDS011;66758;52.078;5.070;2023-09-07T12:36:48;6.28;;;4.85;;
77598;SDS011;66758;52.078;5.070;2023-09-07T12:39:14;9.57;;;5.47;;
77598;SDS011;66758;52.078;5.070;2023-09-07T12:41:39;6.67;;;5.60;;
77598;SDS011;66758;52.078;5.070;2023-09-07T12:44:05;5.85;;;5.22;;
77598;SDS011;66758;52.078;5.070;2023-09-07T12:46:31;6.30;;;5.23;;
77598;SDS011;66758;52.078;5.070;2023-09-07T12:48:57;8.33;;;5.50;;
77598;SDS011;66758;52.078;5.070;2023-09-07T12:51:22;7.63;;;5.13;;
77598;SDS011;66758;52.078;5.070;2023-09-07T12:53:47;5.25;;;4.50;;
77598;SDS011;66758;52.078;5.070;2023-09-07T12:56:13;5.30;;;4.73;;
77598;SDS011;66758;52.078;5.070;2023-09-07T12:58:40;5.25;;;4.60;;
77598;SDS011;66758;52.078;5.070;2023-09-07T13:01:06;6.20;;;4.80;;
77598;SDS011;66758;52.078;5.070;2023-09-07T13:03:34;6.50;;;4.63;;
77598;SDS011;66758;52.078;5.070;2023-09-07T13:06:00;6.88;;;4.70;;
77598;SDS011;66758;52.078;5.070;2023-09-07T13:08:26;7.17;;;4.70;;
77598;SDS011;66758;52.078;5.070;2023-09-07T13:10:51;6.43;;;4.70;;
77598;SDS011;66758;52.078;5.070;2023-09-07T13:13:16;7.97;;;4.80;;
77598;SDS011;66758;52.078;5.070;2023-09-07T13:15:42;7.38;;;5.03;;
77598;SDS011;66758;52.078;5.070;2023-09-07T13:18:07;6.00;;;5.13;;
77598;SDS011;66758;52.078;5.070;2023-09-07T13:20:33;5.70;;;4.97;;
77598;SDS011;66758;52.078;5.070;2023-09-07T13:22:58;6.27;;;5.27;;
77598;SDS011;66758;52.078;5.070;2023-09-07T13:25:25;6.00;;;5.38;;
77598;SDS011;66758;52.078;5.070;2023-09-07T13:27:51;6.47;;;5.30;;
77598;SDS011;66758;52.078;5.070;2023-09-07T13:30:16;7.20;;;6.50;;
77598;SDS011;66758;52.078;5.070;2023-09-07T13:32:42;8.68;;;5.53;;
77598;SDS011;66758;52.078;5.070;2023-09-07T13:35:07;7.00;;;6.13;;
77598;SDS011;66758;52.078;5.070;2023-09-07T13:37:33;9.23;;;5.70;;
77598;SDS011;66758;52.078;5.070;2023-09-07T13:40:00;6.40;;;5.80;;
77598;SDS011;66758;52.078;5.070;2023-09-07T13:42:26;6.32;;;5.63;;
77598;SDS011;66758;52.078;5.070;2023-09-07T13:44:52;12.30;;;7.75;;
77598;SDS011;66758;52.078;5.070;2023-09-07T13:47:17;6.80;;;5.90;;
77598;SDS011;66758;52.078;5.070;2023-09-07T13:49:43;6.47;;;5.97;;
77598;SDS011;66758;52.078;5.070;2023-09-07T13:52:08;6.80;;;5.60;;
77598;SDS011;66758;52.078;5.070;2023-09-07T13:54:33;12.73;;;6.10;;
77598;SDS011;66758;52.078;5.070;2023-09-07T13:56:59;7.78;;;5.93;;
77598;SDS011;66758;52.078;5.070;2023-09-07T13:59:24;7.10;;;5.67;;
77598;SDS011;66758;52.078;5.070;2023-09-07T14:01:53;5.93;;;5.32;;
77598;SDS011;66758;52.078;5.070;2023-09-07T14:04:19;10.53;;;5.70;;
77598;SDS011;66758;52.078;5.070;2023-09-07T14:06:44;5.93;;;5.43;;
77598;SDS011;66758;52.078;5.070;2023-09-07T14:09:10;7.10;;;5.70;;
77598;SDS011;66758;52.078;5.070;2023-09-07T14:11:36;5.33;;;4.80;;
77598;SDS011;66758;52.078;5.070;2023-09-07T14:14:01;5.60;;;5.10;;
77598;SDS011;66758;52.078;5.070;2023-09-07T14:16:26;6.00;;;5.40;;
77598;SDS011;66758;52.078;5.070;2023-09-07T14:18:52;12.37;;;5.77;;
77598;SDS011;66758;52.078;5.070;2023-09-07T14:21:17;7.03;;;5.13;;
77598;SDS011;66758;52.078;5.070;2023-09-07T14:23:43;5.38;;;4.85;;
77598;SDS011;66758;52.078;5.070;2023-09-07T14:26:09;9.03;;;5.33;;
77598;SDS011;66758;52.078;5.070;2023-09-07T14:28:35;6.70;;;5.20;;
77598;SDS011;66758;52.078;5.070;2023-09-07T14:31:02;6.55;;;5.50;;
77598;SDS011;66758;52.078;5.070;2023-09-07T14:33:29;6.00;;;4.73;;
77598;SDS011;66758;52.078;5.070;2023-09-07T14:35:55;8.77;;;6.07;;
77598;SDS011;66758;52.078;5.070;2023-09-07T14:38:22;7.20;;;5.22;;
77598;SDS011;66758;52.078;5.070;2023-09-07T14:40:48;6.18;;;5.25;;
77598;SDS011;66758;52.078;5.070;2023-09-07T14:43:16;6.67;;;5.47;;